Time;durP1;ratioP1;P1;durP2;ratioP2;P2;SDS_P1;SDS_P2;PMS_P1;PMS_P2;Temp;Humidity;BMP_temperature;BMP_pressure;BME280_temperature;BME280_humidity;BME280_pressure;Samples;Min_cycle;Max_cycle;Signal;HPM_P1;HPM_P2
2021/09/28 00:00:27;;;;;;;10.48;4.88;;;;;;;;;;5033950;28;20045;-60
2021/09/28 00:03:02;;;;;;;10.32;4.78;;;;;;;;;;5031190;28;20056;-60
2021/09/28 00:05:28;;;;;;;8.30;4.32;;;;;;;;;;5031575;28;20118;-60
2021/09/28 00:07:55;;;;;;;9.02;4.70;;;;;;;;;;5031027;28;20104;-60
2021/09/28 00:10:21;;;;;;;8.10;5.05;;;;;;;;;;5030372;28;20443;-60
2021/09/28 00:12:47;;;;;;;9.43;4.90;;;;;;;;;;5031787;28;20124;-60
2021/09/28 00:15:15;;;;;;;10.43;4.55;;;;;;;;;;5032434;28;20057;-60
2021/09/28 00:17:42;;;;;;;7.13;4.13;;;;;;;;;;5031698;28;20501;-60
2021/09/28 00:20:09;;;;;;;8.07;4.28;;;;;;;;;;5031387;28;20195;-60
2021/09/28 00:22:36;;;;;;;6.72;4.43;;;;;;;;;;5031334;28;20052;-60
2021/09/28 00:25:03;;;;;;;7.53;4.10;;;;;;;;;;5031692;28;20077;-60
2021/09/28 00:27:30;;;;;;;11.93;4.47;;;;;;;;;;5029026;28;20139;-60
2021/09/28 00:29:57;;;;;;;5.65;3.72;;;;;;;;;;5031608;28;20049;-60
2021/09/28 00:32:23;;;;;;;10.00;4.35;;;;;;;;;;5031912;28;20052;-60
2021/09/28 00:34:49;;;;;;;7.53;4.38;;;;;;;;;;5031873;28;20048;-60
2021/09/28 00:37:16;;;;;;;9.90;4.65;;;;;;;;;;5031722;28;20041;-60
2021/09/28 00:39:43;;;;;;;7.25;4.18;;;;;;;;;;5032484;28;20045;-60
2021/09/28 00:42:09;;;;;;;9.40;4.05;;;;;;;;;;5033256;28;20084;-60
2021/09/28 00:44:38;;;;;;;7.18;3.88;;;;;;;;;;5028221;28;20111;-60
2021/09/28 00:47:05;;;;;;;7.85;4.10;;;;;;;;;;5031573;28;20044;-60
2021/09/28 00:49:31;;;;;;;7.32;3.80;;;;;;;;;;5024204;28;20045;-60
2021/09/28 00:51:58;;;;;;;6.30;4.25;;;;;;;;;;5029282;28;20041;-60
2021/09/28 00:54:25;;;;;;;8.77;3.92;;;;;;;;;;5033028;28;20049;-60
2021/09/28 00:56:52;;;;;;;9.82;4.10;;;;;;;;;;5031498;28;20038;-60
2021/09/28 00:59:19;;;;;;;7.68;4.55;;;;;;;;;;5031398;28;20053;-60
2021/09/28 01:01:45;;;;;;;6.43;4.05;;;;;;;;;;5029006;28;20038;-60
2021/09/28 01:04:16;;;;;;;7.35;4.75;;;;;;;;;;5031317;28;20407;-59
2021/09/28 01:06:43;;;;;;;5.55;3.47;;;;;;;;;;5031903;28;20057;-60
2021/09/28 01:09:11;;;;;;;6.78;4.20;;;;;;;;;;5032886;28;20046;-60
2021/09/28 01:11:39;;;;;;;7.13;4.13;;;;;;;;;;5031198;28;20045;-60
2021/09/28 01:14:05;;;;;;;7.03;3.78;;;;;;;;;;5031049;28;20045;-60
2021/09/28 01:16:32;;;;;;;5.13;3.45;;;;;;;;;;5031360;28;20041;-60
2021/09/28 01:18:58;;;;;;;9.43;3.45;;;;;;;;;;5031057;28;20095;-60
2021/09/28 01:21:24;;;;;;;6.88;4.10;;;;;;;;;;5032909;28;20491;-60
2021/09/28 01:23:51;;;;;;;6.68;3.40;;;;;;;;;;5031058;28;20049;-59
2021/09/28 01:26:23;;;;;;;6.55;3.90;;;;;;;;;;5030914;28;20045;-60
2021/09/28 01:28:50;;;;;;;6.15;3.63;;;;;;;;;;5029679;28;20041;-60
2021/09/28 01:31:16;;;;;;;6.18;3.58;;;;;;;;;;5031064;28;20461;-60
2021/09/28 01:33:42;;;;;;;9.48;4.00;;;;;;;;;;5031694;28;20124;-60
2021/09/28 01:36:09;;;;;;;6.85;3.75;;;;;;;;;;5032253;28;20076;-60
2021/09/28 01:38:35;;;;;;;6.53;3.78;;;;;;;;;;5030704;28;20042;-60
2021/09/28 01:41:02;;;;;;;7.07;3.67;;;;;;;;;;5030832;28;20045;-60
2021/09/28 01:43:29;;;;;;;6.15;3.58;;;;;;;;;;5030865;28;20045;-60
2021/09/28 01:45:56;;;;;;;10.18;4.53;;;;;;;;;;5031100;28;20079;-60
2021/09/28 01:48:24;;;;;;;6.80;3.28;;;;;;;;;;5032589;28;20045;-59
2021/09/28 01:50:51;;;;;;;8.07;4.53;;;;;;;;;;5030609;28;20077;-60
2021/09/28 01:53:17;;;;;;;6.05;3.78;;;;;;;;;;5030790;28;20049;-60
2021/09/28 01:55:43;;;;;;;7.07;4.10;;;;;;;;;;5026156;28;20049;-59
2021/09/28 01:58:10;;;;;;;7.15;4.15;;;;;;;;;;5030766;28;20061;-60
2021/09/28 02:00:36;;;;;;;10.90;3.25;;;;;;;;;;5031977;28;20478;-59
2021/09/28 02:03:03;;;;;;;5.68;3.70;;;;;;;;;;5031472;28;20102;-60
2021/09/28 02:05:29;;;;;;;6.07;3.75;;;;;;;;;;5030334;28;20049;-60
2021/09/28 02:07:55;;;;;;;6.00;3.85;;;;;;;;;;5029394;28;20103;-60
2021/09/28 02:10:22;;;;;;;6.47;3.88;;;;;;;;;;5030813;28;20041;-59
2021/09/28 02:12:48;;;;;;;6.13;3.78;;;;;;;;;;5030650;28;20077;-60
2021/09/28 02:15:14;;;;;;;6.50;3.83;;;;;;;;;;5032650;28;20048;-59
2021/09/28 02:17:41;;;;;;;7.45;3.85;;;;;;;;;;5030673;28;20529;-59
2021/09/28 02:20:08;;;;;;;6.10;3.17;;;;;;;;;;5028626;28;20508;-60
2021/09/28 02:22:35;;;;;;;5.20;3.05;;;;;;;;;;5030736;28;20406;-60
2021/09/28 02:25:01;;;;;;;6.25;3.92;;;;;;;;;;5015002;28;20034;-60
2021/09/28 02:27:28;;;;;;;6.75;3.60;;;;;;;;;;5032344;28;20076;-60
2021/09/28 02:29:55;;;;;;;6.68;3.65;;;;;;;;;;5030449;28;20042;-60
2021/09/28 02:32:21;;;;;;;5.53;3.65;;;;;;;;;;5030374;28;20049;-60
2021/09/28 02:34:48;;;;;;;4.57;3.10;;;;;;;;;;5030301;28;20076;-60
2021/09/28 02:37:14;;;;;;;7.97;3.55;;;;;;;;;;5030563;28;20034;-60
2021/09/28 02:39:40;;;;;;;8.30;3.72;;;;;;;;;;5031561;28;20513;-59
2021/09/28 02:42:08;;;;;;;7.25;4.15;;;;;;;;;;5031587;28;20176;-60
2021/09/28 02:44:34;;;;;;;8.68;3.88;;;;;;;;;;5030181;28;20053;-59
2021/09/28 02:47:00;;;;;;;9.88;3.97;;;;;;;;;;5030309;28;20500;-59
2021/09/28 02:49:27;;;;;;;6.25;3.63;;;;;;;;;;5030146;28;20092;-60
2021/09/28 02:51:53;;;;;;;7.97;3.63;;;;;;;;;;5031987;28;20732;-60
2021/09/28 02:54:19;;;;;;;5.50;3.58;;;;;;;;;;5035713;28;20049;-60
2021/09/28 02:56:46;;;;;;;12.80;3.78;;;;;;;;;;5033677;28;20065;-59
2021/09/28 02:59:12;;;;;;;5.32;3.45;;;;;;;;;;5033602;28;20180;-59
2021/09/28 03:01:39;;;;;;;8.25;3.35;;;;;;;;;;5033348;28;20042;-60
2021/09/28 03:04:05;;;;;;;6.47;3.25;;;;;;;;;;5025358;28;20493;-60
2021/09/28 03:06:32;;;;;;;10.27;3.60;;;;;;;;;;5035669;28;20065;-60
2021/09/28 03:08:58;;;;;;;7.65;3.70;;;;;;;;;;5026303;28;20488;-60
2021/09/28 03:11:26;;;;;;;6.15;3.90;;;;;;;;;;5028697;28;20060;-59
2021/09/28 03:13:57;;;;;;;5.80;3.95;;;;;;;;;;5033494;28;20480;-60
2021/09/28 03:16:23;;;;;;;5.43;3.35;;;;;;;;;;5032887;28;20045;-60
2021/09/28 03:18:50;;;;;;;8.32;3.97;;;;;;;;;;5032348;28;20529;-59
2021/09/28 03:21:16;;;;;;;7.15;3.33;;;;;;;;;;5034396;28;20049;-60
2021/09/28 03:23:42;;;;;;;7.05;3.58;;;;;;;;;;5032961;28;20048;-60
2021/09/28 03:26:09;;;;;;;5.90;3.53;;;;;;;;;;5031267;28;20531;-60
2021/09/28 03:28:36;;;;;;;6.57;3.80;;;;;;;;;;5032727;28;20053;-60
2021/09/28 03:31:02;;;;;;;6.40;3.20;;;;;;;;;;5032888;28;20377;-59
2021/09/28 03:33:28;;;;;;;4.70;2.88;;;;;;;;;;5029972;28;20088;-60
2021/09/28 03:35:55;;;;;;;8.60;3.97;;;;;;;;;;5032452;28;20094;-60
2021/09/28 03:38:21;;;;;;;5.55;3.35;;;;;;;;;;5032888;28;20487;-59
2021/09/28 03:40:48;;;;;;;6.07;3.05;;;;;;;;;;5032859;28;20436;-60
2021/09/28 03:43:15;;;;;;;7.47;4.00;;;;;;;;;;5032633;28;20037;-59
2021/09/28 03:45:41;;;;;;;5.40;3.55;;;;;;;;;;5033390;28;20399;-59
2021/09/28 03:48:08;;;;;;;9.40;3.60;;;;;;;;;;5033700;28;20124;-60
2021/09/28 03:50:34;;;;;;;6.68;3.38;;;;;;;;;;5032361;28;20046;-59
2021/09/28 03:53:01;;;;;;;7.47;3.70;;;;;;;;;;5031855;28;20049;-60
2021/09/28 03:55:27;;;;;;;4.97;3.05;;;;;;;;;;5029856;28;20045;-60
2021/09/28 03:57:54;;;;;;;7.57;3.58;;;;;;;;;;5030596;28;20056;-60
2021/09/28 04:00:22;;;;;;;4.53;2.90;;;;;;;;;;5032133;28;20049;-60
2021/09/28 04:02:49;;;;;;;5.68;3.25;;;;;;;;;;5031008;28;20403;-60
2021/09/28 04:05:16;;;;;;;4.72;2.90;;;;;;;;;;5030053;28;20045;-59
2021/09/28 04:07:42;;;;;;;6.85;3.08;;;;;;;;;;5040394;28;20103;-59
2021/09/28 04:10:10;;;;;;;6.15;3.88;;;;;;;;;;5031344;28;20056;-59
2021/09/28 04:12:36;;;;;;;5.13;3.08;;;;;;;;;;5032676;28;20487;-60
2021/09/28 04:15:03;;;;;;;5.07;3.20;;;;;;;;;;5031646;28;20049;-59
2021/09/28 04:17:30;;;;;;;5.95;3.38;;;;;;;;;;5032195;28;20080;-60
2021/09/28 04:19:57;;;;;;;6.57;3.92;;;;;;;;;;5038099;28;20141;-60
2021/09/28 04:22:24;;;;;;;7.32;4.35;;;;;;;;;;5040752;28;20068;-60
2021/09/28 04:24:51;;;;;;;7.22;4.43;;;;;;;;;;5040195;28;20057;-60
2021/09/28 04:27:17;;;;;;;8.50;5.18;;;;;;;;;;5033003;28;20073;-60
2021/09/28 04:29:44;;;;;;;7.47;4.50;;;;;;;;;;5033399;28;20045;-59
2021/09/28 04:32:11;;;;;;;7.90;4.82;;;;;;;;;;5036027;28;20056;-60
2021/09/28 04:34:37;;;;;;;7.68;4.22;;;;;;;;;;5040081;28;20087;-60
2021/09/28 04:37:04;;;;;;;7.20;3.78;;;;;;;;;;5040812;28;20045;-59
2021/09/28 04:39:31;;;;;;;6.82;3.97;;;;;;;;;;5039158;28;20466;-59
2021/09/28 04:41:57;;;;;;;6.95;4.25;;;;;;;;;;5035056;28;20131;-60
2021/09/28 04:44:24;;;;;;;5.88;3.95;;;;;;;;;;5033880;28;20057;-59
2021/09/28 04:46:50;;;;;;;9.40;3.65;;;;;;;;;;5030097;28;20611;-59
2021/09/28 04:49:16;;;;;;;9.45;4.10;;;;;;;;;;5029541;28;20071;-59
2021/09/28 04:51:43;;;;;;;6.07;3.72;;;;;;;;;;5031872;28;20061;-60
2021/09/28 04:54:09;;;;;;;7.70;3.80;;;;;;;;;;5032862;28;20048;-59
2021/09/28 04:56:36;;;;;;;8.75;4.22;;;;;;;;;;5030481;28;20045;-60
2021/09/28 04:59:03;;;;;;;6.05;3.65;;;;;;;;;;5030234;28;20042;-60
2021/09/28 05:01:30;;;;;;;7.57;4.15;;;;;;;;;;5030350;28;20406;-60
2021/09/28 05:03:56;;;;;;;7.82;4.78;;;;;;;;;;5030221;28;20596;-60
2021/09/28 05:06:23;;;;;;;8.98;5.10;;;;;;;;;;5030155;28;20065;-60
2021/09/28 05:08:51;;;;;;;11.88;4.80;;;;;;;;;;5027799;28;20092;-59
2021/09/28 05:11:18;;;;;;;11.55;5.60;;;;;;;;;;5029831;28;20043;-60
2021/09/28 05:13:44;;;;;;;10.13;6.07;;;;;;;;;;5028789;28;20095;-60
2021/09/28 05:16:10;;;;;;;9.30;5.47;;;;;;;;;;5029022;28;20057;-60
2021/09/28 05:18:37;;;;;;;10.25;4.85;;;;;;;;;;5030810;28;20053;-60
2021/09/28 05:21:03;;;;;;;8.15;5.38;;;;;;;;;;5031399;28;20091;-60
2021/09/28 05:23:29;;;;;;;8.98;5.43;;;;;;;;;;5030874;28;20116;-60
2021/09/28 05:25:56;;;;;;;12.32;4.28;;;;;;;;;;5030209;28;20080;-59
2021/09/28 05:28:23;;;;;;;7.22;4.15;;;;;;;;;;5029923;28;20486;-60
2021/09/28 05:30:49;;;;;;;10.07;5.05;;;;;;;;;;5030506;28;20440;-60
2021/09/28 05:33:16;;;;;;;8.07;3.67;;;;;;;;;;5031779;28;20057;-60
2021/09/28 05:35:42;;;;;;;7.10;4.65;;;;;;;;;;5030154;28;20132;-60
2021/09/28 05:38:09;;;;;;;7.35;4.32;;;;;;;;;;5028970;28;20076;-60
2021/09/28 05:40:35;;;;;;;8.40;4.47;;;;;;;;;;5030403;28;20047;-60
2021/09/28 05:43:01;;;;;;;6.95;3.63;;;;;;;;;;5028666;28;20048;-60
2021/09/28 05:45:28;;;;;;;4.70;3.33;;;;;;;;;;5031021;28;20130;-59
2021/09/28 05:47:54;;;;;;;7.88;3.97;;;;;;;;;;5030641;28;20041;-60
2021/09/28 05:50:21;;;;;;;7.82;4.50;;;;;;;;;;5030269;28;20053;-59
2021/09/28 05:52:48;;;;;;;6.38;4.28;;;;;;;;;;5030569;28;20057;-60
2021/09/28 05:55:15;;;;;;;7.15;4.50;;;;;;;;;;5030429;28;20388;-60
2021/09/28 05:57:42;;;;;;;6.28;3.83;;;;;;;;;;5031173;28;20065;-60
2021/09/28 06:00:10;;;;;;;5.97;4.07;;;;;;;;;;5031416;28;20084;-60
2021/09/28 06:02:40;;;;;;;5.55;3.67;;;;;;;;;;5027270;28;20192;-60
2021/09/28 06:05:07;;;;;;;6.53;4.07;;;;;;;;;;5025111;28;20052;-60
2021/09/28 06:07:33;;;;;;;9.00;3.95;;;;;;;;;;5024080;28;20076;-60
2021/09/28 06:10:00;;;;;;;6.75;4.55;;;;;;;;;;5021219;28;20128;-60
2021/09/28 06:12:26;;;;;;;6.03;3.67;;;;;;;;;;5034478;28;20469;-60
2021/09/28 06:14:53;;;;;;;7.60;3.92;;;;;;;;;;5027424;28;20061;-59
2021/09/28 06:17:19;;;;;;;7.43;3.75;;;;;;;;;;5027920;28;20045;-59
2021/09/28 06:19:45;;;;;;;7.18;4.15;;;;;;;;;;5025538;28;20077;-60
2021/09/28 06:22:12;;;;;;;5.15;3.47;;;;;;;;;;5026583;28;20050;-60
2021/09/28 06:24:38;;;;;;;8.48;3.45;;;;;;;;;;5028192;28;20116;-59
2021/09/28 06:27:06;;;;;;;17.13;4.13;;;;;;;;;;5029949;28;20049;-60
2021/09/28 06:29:33;;;;;;;8.63;4.03;;;;;;;;;;5023633;28;20077;-58
2021/09/28 06:31:59;;;;;;;7.03;4.22;;;;;;;;;;5037676;28;20038;-58
2021/09/28 06:34:26;;;;;;;6.93;3.90;;;;;;;;;;5029849;28;20059;-59
2021/09/28 06:36:53;;;;;;;6.90;2.83;;;;;;;;;;5042950;28;20502;-58
2021/09/28 06:39:19;;;;;;;6.00;3.17;;;;;;;;;;5040714;28;20056;-59
2021/09/28 06:41:46;;;;;;;6.95;2.83;;;;;;;;;;5036825;28;20493;-58
2021/09/28 06:44:12;;;;;;;7.72;3.83;;;;;;;;;;5035511;28;20080;-58
2021/09/28 06:46:39;;;;;;;4.38;3.10;;;;;;;;;;5041035;28;20053;-58
2021/09/28 06:49:05;;;;;;;4.70;2.50;;;;;;;;;;5030995;28;20049;-58
2021/09/28 06:51:32;;;;;;;4.72;3.05;;;;;;;;;;5044510;28;20045;-58
2021/09/28 06:53:58;;;;;;;5.22;3.58;;;;;;;;;;5030515;28;20451;-59
2021/09/28 06:56:25;;;;;;;5.30;2.70;;;;;;;;;;5032075;28;20052;-59
2021/09/28 06:58:52;;;;;;;5.03;2.58;;;;;;;;;;5030198;28;20045;-58
2021/09/28 07:01:18;;;;;;;4.57;2.92;;;;;;;;;;5043489;28;20045;-58
2021/09/28 07:06:34;;;;;;;6.53;2.75;;;;;;;;;;5021498;23;20271;-64
2021/09/28 07:09:01;;;;;;;6.50;3.45;;;;;;;;;;4987213;28;20062;-65
2021/09/28 07:11:28;;;;;;;3.92;2.47;;;;;;;;;;4991255;28;20492;-64
2021/09/28 07:13:55;;;;;;;3.53;2.25;;;;;;;;;;4991867;28;20458;-65
2021/09/28 07:16:22;;;;;;;4.47;2.22;;;;;;;;;;4992486;28;20078;-65
2021/09/28 07:18:48;;;;;;;4.88;2.78;;;;;;;;;;4990635;28;20041;-64
2021/09/28 07:21:16;;;;;;;5.60;2.80;;;;;;;;;;4982953;28;20046;-65
2021/09/28 07:23:42;;;;;;;7.25;3.20;;;;;;;;;;4979605;28;20474;-64
2021/09/28 07:26:10;;;;;;;5.45;2.50;;;;;;;;;;4984363;28;20125;-64
2021/09/28 07:28:37;;;;;;;3.30;2.30;;;;;;;;;;4992134;28;20108;-65
2021/09/28 07:31:04;;;;;;;4.28;2.58;;;;;;;;;;4990925;28;20081;-63
2021/09/28 07:33:32;;;;;;;4.25;2.55;;;;;;;;;;4989638;28;20042;-65
2021/09/28 07:35:58;;;;;;;4.75;2.60;;;;;;;;;;4989870;28;20053;-65
2021/09/28 07:38:24;;;;;;;4.32;2.50;;;;;;;;;;4989791;28;20166;-63
2021/09/28 07:40:51;;;;;;;6.50;2.40;;;;;;;;;;4993662;28;20488;-63
2021/09/28 07:43:18;;;;;;;3.13;2.05;;;;;;;;;;4990274;28;20558;-65
2021/09/28 07:45:45;;;;;;;3.58;2.50;;;;;;;;;;4990672;28;20468;-63
2021/09/28 07:48:11;;;;;;;6.53;2.47;;;;;;;;;;4990829;28;20613;-65
2021/09/28 07:50:37;;;;;;;6.57;1.98;;;;;;;;;;4989828;28;20085;-65
2021/09/28 07:53:06;;;;;;;6.70;2.30;;;;;;;;;;4992036;28;20089;-64
2021/09/28 07:55:33;;;;;;;5.32;2.35;;;;;;;;;;4991134;28;20050;-64
2021/09/28 07:57:59;;;;;;;4.40;2.33;;;;;;;;;;4989882;28;20492;-65
2021/09/28 08:00:26;;;;;;;4.40;2.42;;;;;;;;;;4990788;28;20445;-65
2021/09/28 08:02:52;;;;;;;3.50;1.90;;;;;;;;;;4990138;28;20042;-66
2021/09/28 08:05:19;;;;;;;4.30;2.35;;;;;;;;;;4990205;28;20057;-64
2021/09/28 08:07:45;;;;;;;5.10;1.58;;;;;;;;;;4993809;28;20101;-65
2021/09/28 08:10:15;;;;;;;4.63;2.10;;;;;;;;;;4990350;28;20488;-65
2021/09/28 08:12:42;;;;;;;4.45;1.85;;;;;;;;;;4989949;28;20062;-66
2021/09/28 08:15:09;;;;;;;2.88;1.75;;;;;;;;;;4990263;28;20085;-65
2021/09/28 08:17:35;;;;;;;3.67;1.92;;;;;;;;;;4990319;28;20117;-65
2021/09/28 08:20:03;;;;;;;3.13;1.92;;;;;;;;;;4991583;28;20562;-64
2021/09/28 08:22:30;;;;;;;3.10;1.80;;;;;;;;;;4991784;28;20504;-65
2021/09/28 08:25:06;;;;;;;3.85;1.80;;;;;;;;;;4989787;28;20038;-63
2021/09/28 08:30:18;;;;;;;;;;;;;;;;;;4990198;28;20046;-64
2021/09/28 08:32:44;;;;;;;2.42;1.52;;;;;;;;;;4988384;28;20017;-66
2021/09/28 08:35:11;;;;;;;2.97;1.95;;;;;;;;;;4991004;28;20073;-64
2021/09/28 08:37:37;;;;;;;2.25;1.58;;;;;;;;;;4992329;28;20104;-65
2021/09/28 08:40:04;;;;;;;3.42;1.77;;;;;;;;;;4988853;28;20074;-63
2021/09/28 08:42:30;;;;;;;2.22;1.60;;;;;;;;;;4989394;28;20112;-65
2021/09/28 08:44:56;;;;;;;2.72;1.55;;;;;;;;;;4989234;28;20129;-65
2021/09/28 08:47:42;;;;;;;2.17;1.38;;;;;;;;;;4988510;28;20495;-64
2021/09/28 08:50:14;;;;;;;2.42;1.45;;;;;;;;;;4989759;28;20057;-65
2021/09/28 08:52:44;;;;;;;2.17;1.50;;;;;;;;;;4992282;28;20082;-66
2021/09/28 08:55:11;;;;;;;3.50;2.25;;;;;;;;;;4989553;28;20108;-65
2021/09/28 08:57:38;;;;;;;2.40;1.63;;;;;;;;;;4989376;28;20550;-65
2021/09/28 09:00:14;;;;;;;4.03;2.42;;;;;;;;;;4989131;28;20047;-66
2021/09/28 09:02:44;;;;;;;4.90;2.78;;;;;;;;;;4990369;28;20049;-65
2021/09/28 09:05:13;;;;;;;5.57;1.90;;;;;;;;;;4990154;28;20784;-66
2021/09/28 09:07:39;;;;;;;2.70;1.80;;;;;;;;;;4992106;28;20046;-65
2021/09/28 09:10:06;;;;;;;3.97;2.47;;;;;;;;;;4989187;28;20061;-66
2021/09/28 09:12:40;;;;;;;6.50;2.90;;;;;;;;;;4989042;28;20039;-65
2021/09/28 09:15:27;;;;;;;4.38;2.08;;;;;;;;;;4980174;28;20050;-66
2021/09/28 09:17:54;;;;;;;6.65;2.30;;;;;;;;;;4988562;28;20498;-65
2021/09/28 09:20:24;;;;;;;3.08;1.80;;;;;;;;;;4990817;28;20488;-65
2021/09/28 09:22:50;;;;;;;3.63;2.30;;;;;;;;;;4992369;28;20042;-66
2021/09/28 09:25:21;;;;;;;4.30;2.45;;;;;;;;;;4989623;28;20073;-66
2021/09/28 09:27:48;;;;;;;4.13;2.10;;;;;;;;;;4988437;28;20042;-66
2021/09/28 09:30:19;;;;;;;9.00;3.15;;;;;;;;;;4988848;28;20106;-67
2021/09/28 09:32:46;;;;;;;3.25;2.13;;;;;;;;;;4988974;28;20077;-65
2021/09/28 09:35:18;;;;;;;4.68;2.22;;;;;;;;;;4989672;28;20582;-66
2021/09/28 09:37:44;;;;;;;3.80;2.30;;;;;;;;;;4992416;28;20054;-65
2021/09/28 09:40:11;;;;;;;2.03;1.33;;;;;;;;;;4988400;28;20058;-65
2021/09/28 09:42:53;;;;;;;4.68;1.92;;;;;;;;;;4989872;28;20046;-65
2021/09/28 09:45:23;;;;;;;3.45;1.98;;;;;;;;;;4988203;28;20512;-65
2021/09/28 09:47:49;;;;;;;3.63;2.03;;;;;;;;;;4988065;28;20038;-67
2021/09/28 09:50:17;;;;;;;2.17;1.50;;;;;;;;;;4989409;28;20057;-66
2021/09/28 09:52:55;;;;;;;2.22;1.50;;;;;;;;;;4992027;28;20142;-66
2021/09/28 09:55:28;;;;;;;3.88;1.70;;;;;;;;;;4990283;28;20050;-65
2021/09/28 09:57:55;;;;;;;7.43;1.80;;;;;;;;;;4989851;28;20399;-66
2021/09/28 10:00:22;;;;;;;3.40;1.75;;;;;;;;;;4988879;28;20176;-65
2021/09/28 10:02:49;;;;;;;4.40;1.63;;;;;;;;;;4994156;28;20133;-67
2021/09/28 10:05:16;;;;;;;3.55;1.63;;;;;;;;;;4993647;28;20081;-65
2021/09/28 10:07:42;;;;;;;3.40;1.80;;;;;;;;;;4995318;28;20050;-65
2021/09/28 10:10:09;;;;;;;3.38;1.67;;;;;;;;;;4991590;28;20065;-66
2021/09/28 10:12:36;;;;;;;5.22;1.70;;;;;;;;;;4994273;28;20081;-65
2021/09/28 10:15:07;;;;;;;2.55;1.60;;;;;;;;;;4991602;28;20038;-65
2021/09/28 10:17:39;;;;;;;3.58;1.63;;;;;;;;;;4992418;28;20467;-66
2021/09/28 10:20:07;;;;;;;2.78;1.60;;;;;;;;;;4993264;28;20049;-65
2021/09/28 10:22:36;;;;;;;2.40;1.40;;;;;;;;;;4994322;28;20054;-65
2021/09/28 10:27:47;;;;;;;;;;;;;;;;;;4992051;28;20082;-65
2021/09/28 10:30:46;;;;;;;4.30;2.00;;;;;;;;;;4991603;28;19921;-65
2021/09/28 10:33:14;;;;;;;2.45;1.50;;;;;;;;;;4919837;29;20110;-67
2021/09/28 10:36:08;;;;;;;5.65;2.00;;;;;;;;;;4929389;29;20044;-64
2021/09/28 10:38:45;;;;;;;2.95;1.73;;;;;;;;;;4925867;29;20140;-65
2021/09/28 10:41:30;;;;;;;2.20;1.45;;;;;;;;;;4932279;29;20072;-66
2021/09/28 10:44:16;;;;;;;4.57;1.80;;;;;;;;;;4930801;29;20060;-66
2021/09/28 10:46:42;;;;;;;2.80;1.30;;;;;;;;;;4934900;29;20047;-65
2021/09/28 10:49:26;;;;;;;2.38;1.70;;;;;;;;;;4928697;29;20098;-65
2021/09/28 10:52:11;;;;;;;5.25;1.50;;;;;;;;;;4931250;29;20043;-65
2021/09/28 10:54:56;;;;;;;6.57;1.73;;;;;;;;;;4933745;29;20083;-64
2021/09/28 10:57:42;;;;;;;4.78;1.48;;;;;;;;;;4931584;29;20099;-66
2021/09/28 11:00:09;;;;;;;4.10;1.85;;;;;;;;;;4922902;29;20100;-66
2021/09/28 11:02:54;;;;;;;4.40;1.75;;;;;;;;;;4918156;29;20433;-67
2021/09/28 11:05:30;;;;;;;6.97;1.90;;;;;;;;;;4931109;29;20056;-66
2021/09/28 11:07:57;;;;;;;3.83;1.80;;;;;;;;;;4940023;28;20522;-66
2021/09/28 11:10:24;;;;;;;4.95;1.90;;;;;;;;;;4992871;28;20074;-66
2021/09/28 11:12:50;;;;;;;2.53;1.73;;;;;;;;;;4989924;28;20081;-65
2021/09/28 11:15:20;;;;;;;5.45;2.35;;;;;;;;;;4991412;28;20141;-67
2021/09/28 11:17:47;;;;;;;4.45;1.73;;;;;;;;;;4991329;28;20086;-66
2021/09/28 11:20:21;;;;;;;7.47;2.00;;;;;;;;;;4991951;28;20051;-65
2021/09/28 11:22:58;;;;;;;13.13;2.20;;;;;;;;;;4990793;28;20057;-66
2021/09/28 11:25:24;;;;;;;2.67;1.65;;;;;;;;;;4993836;28;20073;-66
2021/09/28 11:28:08;;;;;;;2.42;1.52;;;;;;;;;;4990617;28;20397;-67
2021/09/28 11:30:36;;;;;;;5.88;1.67;;;;;;;;;;4985060;28;20466;-66
2021/09/28 11:33:03;;;;;;;2.10;1.40;;;;;;;;;;4984117;28;20074;-68
2021/09/28 11:35:30;;;;;;;4.38;1.77;;;;;;;;;;4988849;28;20048;-67
2021/09/28 11:37:57;;;;;;;8.98;2.17;;;;;;;;;;4992124;28;20043;-67
2021/09/28 11:40:35;;;;;;;9.57;3.10;;;;;;;;;;4990304;28;20113;-67
2021/09/28 11:43:20;;;;;;;2.58;1.58;;;;;;;;;;4989243;28;20097;-68
2021/09/28 11:45:57;;;;;;;5.05;1.92;;;;;;;;;;4990333;28;20081;-68
2021/09/28 11:48:23;;;;;;;4.18;1.48;;;;;;;;;;4991138;28;20042;-68
2021/09/28 11:50:49;;;;;;;3.30;1.70;;;;;;;;;;4991026;28;20096;-68
2021/09/28 11:53:16;;;;;;;2.25;1.40;;;;;;;;;;4990628;28;20169;-68
2021/09/28 11:55:43;;;;;;;4.00;1.70;;;;;;;;;;4991408;28;20054;-68
2021/09/28 11:58:09;;;;;;;3.35;1.67;;;;;;;;;;4988899;28;20465;-68
2021/09/28 12:00:35;;;;;;;2.38;1.50;;;;;;;;;;4989927;28;20506;-68
2021/09/28 12:03:06;;;;;;;2.20;1.30;;;;;;;;;;4990146;28;20092;-68
2021/09/28 12:08:21;;;;;;;3.25;1.60;;;;;;;;;;4991558;28;20053;-68
2021/09/28 12:10:47;;;;;;;4.93;1.60;;;;;;;;;;4988032;28;20077;-68
2021/09/28 12:13:14;;;;;;;2.90;1.40;;;;;;;;;;4991601;28;20050;-67
2021/09/28 12:15:59;;;;;;;2.38;1.60;;;;;;;;;;4991516;28;20101;-68
2021/09/28 12:18:26;;;;;;;3.05;1.92;;;;;;;;;;4985997;28;20042;-68
2021/09/28 12:20:52;;;;;;;5.90;2.00;;;;;;;;;;4992512;28;20496;-68
2021/09/28 12:23:18;;;;;;;5.10;1.73;;;;;;;;;;4993003;28;20050;-68
2021/09/28 12:25:45;;;;;;;2.10;1.40;;;;;;;;;;4993087;28;20046;-68
2021/09/28 12:28:19;;;;;;;1.88;1.25;;;;;;;;;;4993030;28;20057;-68
2021/09/28 12:30:51;;;;;;;3.25;1.40;;;;;;;;;;4993327;28;20451;-69
2021/09/28 12:33:18;;;;;;;5.00;1.50;;;;;;;;;;4992591;28;20121;-69
2021/09/28 12:35:44;;;;;;;2.42;1.60;;;;;;;;;;4993082;28;20464;-68
2021/09/28 12:38:13;;;;;;;3.75;1.52;;;;;;;;;;4993009;28;20121;-68
2021/09/28 12:40:43;;;;;;;2.75;1.40;;;;;;;;;;4993248;28;20050;-69
2021/09/28 12:43:11;;;;;;;3.83;1.40;;;;;;;;;;4992901;28;20046;-68
2021/09/28 12:45:48;;;;;;;2.05;1.50;;;;;;;;;;4992822;28;20046;-68
2021/09/28 12:48:15;;;;;;;2.28;1.65;;;;;;;;;;4992771;28;20559;-68
2021/09/28 12:50:42;;;;;;;1.95;1.48;;;;;;;;;;4993366;28;20050;-68
2021/09/28 12:53:10;;;;;;;1.95;1.40;;;;;;;;;;4992742;28;20054;-69
2021/09/28 12:55:37;;;;;;;2.70;1.50;;;;;;;;;;4993399;28;20053;-68
2021/09/28 12:58:04;;;;;;;2.40;1.33;;;;;;;;;;4992094;28;20160;-68
2021/09/28 13:00:30;;;;;;;2.17;1.40;;;;;;;;;;4992253;28;20046;-68
2021/09/28 13:02:56;;;;;;;4.57;1.88;;;;;;;;;;4992468;28;20101;-68
2021/09/28 13:05:23;;;;;;;2.10;1.40;;;;;;;;;;4992585;28;20137;-68
2021/09/28 13:07:50;;;;;;;1.98;1.25;;;;;;;;;;4992374;28;20128;-68
2021/09/28 13:10:17;;;;;;;2.45;1.80;;;;;;;;;;4992117;28;20051;-68
2021/09/28 13:12:47;;;;;;;5.53;1.70;;;;;;;;;;4992573;28;20140;-68
2021/09/28 13:15:14;;;;;;;3.33;1.48;;;;;;;;;;4992320;28;20048;-68
2021/09/28 13:17:41;;;;;;;4.82;1.70;;;;;;;;;;4993014;28;20193;-68
2021/09/28 13:20:09;;;;;;;3.30;1.40;;;;;;;;;;4992062;28;20062;-67
2021/09/28 13:22:36;;;;;;;3.80;1.42;;;;;;;;;;4992743;28;20042;-68
2021/09/28 13:25:02;;;;;;;8.45;1.60;;;;;;;;;;4992351;28;20042;-68
2021/09/28 13:27:29;;;;;;;3.17;1.75;;;;;;;;;;4991552;28;20074;-68
2021/09/28 13:29:55;;;;;;;2.47;1.45;;;;;;;;;;4988958;28;20439;-71
2021/09/28 13:32:22;;;;;;;2.65;1.80;;;;;;;;;;4987182;28;20046;-71
2021/09/28 13:34:48;;;;;;;2.45;1.60;;;;;;;;;;4991304;28;20085;-70
2021/09/28 13:37:15;;;;;;;2.45;1.42;;;;;;;;;;4988256;28;20811;-69
2021/09/28 13:39:41;;;;;;;2.78;1.65;;;;;;;;;;4987382;28;20491;-69
2021/09/28 13:42:08;;;;;;;2.42;1.48;;;;;;;;;;4987750;28;20161;-70
2021/09/28 13:44:35;;;;;;;3.10;1.60;;;;;;;;;;4988523;28;20150;-70
2021/09/28 13:47:01;;;;;;;3.67;1.55;;;;;;;;;;4991155;28;20046;-70
2021/09/28 13:49:28;;;;;;;3.03;1.52;;;;;;;;;;4991645;28;20100;-70
2021/09/28 13:51:54;;;;;;;3.33;1.70;;;;;;;;;;4988885;28;20419;-71
2021/09/28 13:54:20;;;;;;;3.20;2.10;;;;;;;;;;4986703;28;20046;-69
2021/09/28 13:56:47;;;;;;;5.78;1.92;;;;;;;;;;4989044;28;20101;-67
2021/09/28 13:59:13;;;;;;;2.58;2.00;;;;;;;;;;4988802;28;20053;-69
2021/09/28 14:01:39;;;;;;;3.47;1.75;;;;;;;;;;4990191;28;20092;-68
2021/09/28 14:04:06;;;;;;;2.70;1.70;;;;;;;;;;4987532;28;20520;-68
2021/09/28 14:06:32;;;;;;;3.33;1.73;;;;;;;;;;4987639;28;20057;-67
2021/09/28 14:08:58;;;;;;;3.63;1.85;;;;;;;;;;4987207;28;20050;-68
2021/09/28 14:11:25;;;;;;;4.90;2.75;;;;;;;;;;4988309;28;20058;-69
2021/09/28 14:13:51;;;;;;;6.05;2.20;;;;;;;;;;4989607;28;20381;-69
2021/09/28 14:16:18;;;;;;;5.88;2.30;;;;;;;;;;4988676;28;20349;-67
2021/09/28 14:18:45;;;;;;;3.03;2.05;;;;;;;;;;4988236;28;20050;-67
2021/09/28 14:21:11;;;;;;;7.15;2.30;;;;;;;;;;4988979;28;20049;-67
2021/09/28 14:23:38;;;;;;;4.15;2.10;;;;;;;;;;4988372;28;20043;-66
2021/09/28 14:26:05;;;;;;;3.90;2.53;;;;;;;;;;4989001;28;20105;-66
2021/09/28 14:28:31;;;;;;;4.13;2.42;;;;;;;;;;4992087;28;20058;-68
2021/09/28 14:30:58;;;;;;;4.00;2.47;;;;;;;;;;4988846;28;20110;-69
2021/09/28 14:33:24;;;;;;;2.88;2.08;;;;;;;;;;4988975;28;20424;-69
2021/09/28 14:35:51;;;;;;;3.53;2.22;;;;;;;;;;4988668;28;20042;-69
2021/09/28 14:38:18;;;;;;;8.95;3.00;;;;;;;;;;4983555;28;20051;-66
2021/09/28 14:40:44;;;;;;;4.07;3.28;;;;;;;;;;4992089;28;20116;-67
2021/09/28 14:43:11;;;;;;;3.88;2.50;;;;;;;;;;4987334;28;20051;-68
2021/09/28 14:45:37;;;;;;;3.45;1.95;;;;;;;;;;4988713;28;20042;-68
2021/09/28 14:48:04;;;;;;;4.38;2.30;;;;;;;;;;4992217;28;20050;-66
2021/09/28 14:50:31;;;;;;;5.35;3.40;;;;;;;;;;4992275;28;20047;-67
2021/09/28 14:52:57;;;;;;;4.25;2.60;;;;;;;;;;4994771;28;20057;-66
2021/09/28 14:55:24;;;;;;;3.60;2.35;;;;;;;;;;4993246;28;20084;-67
2021/09/28 14:57:51;;;;;;;3.00;2.20;;;;;;;;;;4991881;28;20053;-68